sensor_id;sensor_type;location;lat;lon;timestamp;P1;durP1;ratioP1;P2;durP2;ratioP2
20044;SDS011;10183;47.808;9.476;2023-12-14T00:02:14;25.80;;;23.20;;
20044;SDS011;10183;47.808;9.476;2023-12-14T00:05:00;23.63;;;21.27;;
20044;SDS011;10183;47.808;9.476;2023-12-14T00:07:46;24.93;;;22.63;;
20044;SDS011;10183;47.808;9.476;2023-12-14T00:10:32;22.10;;;20.00;;
20044;SDS011;10183;47.808;9.476;2023-12-14T00:13:18;22.83;;;20.73;;
20044;SDS011;10183;47.808;9.476;2023-12-14T00:16:04;22.07;;;20.07;;
20044;SDS011;10183;47.808;9.476;2023-12-14T00:18:50;18.47;;;16.97;;
20044;SDS011;10183;47.808;9.476;2023-12-14T00:21:36;20.67;;;18.87;;
20044;SDS011;10183;47.808;9.476;2023-12-14T00:24:22;22.43;;;20.37;;
20044;SDS011;10183;47.808;9.476;2023-12-14T00:27:08;19.53;;;18.00;;
20044;SDS011;10183;47.808;9.476;2023-12-14T00:29:54;22.97;;;20.67;;
20044;SDS011;10183;47.808;9.476;2023-12-14T00:32:40;22.73;;;20.43;;
20044;SDS011;10183;47.808;9.476;2023-12-14T00:35:26;22.20;;;20.07;;
20044;SDS011;10183;47.808;9.476;2023-12-14T00:38:12;20.73;;;18.83;;
20044;SDS011;10183;47.808;9.476;2023-12-14T00:40:58;19.10;;;17.40;;
20044;SDS011;10183;47.808;9.476;2023-12-14T00:43:44;20.43;;;18.80;;
20044;SDS011;10183;47.808;9.476;2023-12-14T00:46:30;18.80;;;17.30;;
20044;SDS011;10183;47.808;9.476;2023-12-14T00:49:16;18.70;;;17.40;;
20044;SDS011;10183;47.808;9.476;2023-12-14T00:52:04;21.30;;;19.40;;
20044;SDS011;10183;47.808;9.476;2023-12-14T00:54:51;19.27;;;17.77;;
20044;SDS011;10183;47.808;9.476;2023-12-14T00:57:36;20.87;;;19.07;;
20044;SDS011;10183;47.808;9.476;2023-12-14T01:00:22;20.47;;;18.70;;
20044;SDS011;10183;47.808;9.476;2023-12-14T01:03:08;20.23;;;18.57;;
20044;SDS011;10183;47.808;9.476;2023-12-14T01:05:54;20.73;;;18.77;;
20044;SDS011;10183;47.808;9.476;2023-12-14T01:08:40;22.47;;;20.37;;
20044;SDS011;10183;47.808;9.476;2023-12-14T01:11:26;24.20;;;21.90;;
20044;SDS011;10183;47.808;9.476;2023-12-14T01:14:12;23.60;;;21.40;;
20044;SDS011;10183;47.808;9.476;2023-12-14T01:16:58;24.90;;;22.50;;
20044;SDS011;10183;47.808;9.476;2023-12-14T01:19:44;21.43;;;19.53;;
20044;SDS011;10183;47.808;9.476;2023-12-14T01:22:30;21.40;;;19.40;;
20044;SDS011;10183;47.808;9.476;2023-12-14T01:25:16;25.33;;;22.77;;
20044;SDS011;10183;47.808;9.476;2023-12-14T01:28:02;21.33;;;19.60;;
20044;SDS011;10183;47.808;9.476;2023-12-14T01:30:48;23.37;;;21.17;;
20044;SDS011;10183;47.808;9.476;2023-12-14T01:33:34;21.80;;;19.73;;
20044;SDS011;10183;47.808;9.476;2023-12-14T01:36:23;23.00;;;20.70;;
20044;SDS011;10183;47.808;9.476;2023-12-14T01:39:10;19.73;;;18.13;;
20044;SDS011;10183;47.808;9.476;2023-12-14T01:41:56;19.10;;;17.60;;
20044;SDS011;10183;47.808;9.476;2023-12-14T01:44:42;20.20;;;18.50;;
20044;SDS011;10183;47.808;9.476;2023-12-14T01:47:28;17.70;;;16.20;;
20044;SDS011;10183;47.808;9.476;2023-12-14T01:50:14;20.63;;;18.90;;
20044;SDS011;10183;47.808;9.476;2023-12-14T01:53:00;17.63;;;16.33;;
20044;SDS011;10183;47.808;9.476;2023-12-14T01:55:46;16.60;;;15.50;;
20044;SDS011;10183;47.808;9.476;2023-12-14T01:58:32;19.53;;;17.97;;
20044;SDS011;10183;47.808;9.476;2023-12-14T02:01:19;16.87;;;15.67;;
20044;SDS011;10183;47.808;9.476;2023-12-14T02:04:11;17.30;;;16.10;;
20044;SDS011;10183;47.808;9.476;2023-12-14T02:06:58;16.87;;;15.77;;
20044;SDS011;10183;47.808;9.476;2023-12-14T02:09:45;18.00;;;16.70;;
20044;SDS011;10183;47.808;9.476;2023-12-14T02:12:31;19.03;;;17.53;;
20044;SDS011;10183;47.808;9.476;2023-12-14T02:15:19;17.13;;;15.93;;
20044;SDS011;10183;47.808;9.476;2023-12-14T02:18:05;17.80;;;16.20;;
20044;SDS011;10183;47.808;9.476;2023-12-14T02:20:51;21.63;;;19.77;;
20044;SDS011;10183;47.808;9.476;2023-12-14T02:23:44;16.63;;;15.53;;
20044;SDS011;10183;47.808;9.476;2023-12-14T02:26:30;19.00;;;17.50;;
20044;SDS011;10183;47.808;9.476;2023-12-14T02:29:16;16.90;;;15.70;;
20044;SDS011;10183;47.808;9.476;2023-12-14T02:32:02;17.30;;;16.10;;
20044;SDS011;10183;47.808;9.476;2023-12-14T02:34:49;17.33;;;16.13;;
20044;SDS011;10183;47.808;9.476;2023-12-14T02:37:35;17.03;;;15.93;;
20044;SDS011;10183;47.808;9.476;2023-12-14T02:40:27;16.77;;;15.57;;
20044;SDS011;10183;47.808;9.476;2023-12-14T02:43:13;17.57;;;16.37;;
20044;SDS011;10183;47.808;9.476;2023-12-14T02:45:59;17.17;;;16.03;;
20044;SDS011;10183;47.808;9.476;2023-12-14T02:48:47;17.97;;;16.77;;
20044;SDS011;10183;47.808;9.476;2023-12-14T02:51:33;18.10;;;16.90;;
20044;SDS011;10183;47.808;9.476;2023-12-14T02:54:19;18.40;;;17.00;;
20044;SDS011;10183;47.808;9.476;2023-12-14T02:57:05;17.03;;;15.83;;
20044;SDS011;10183;47.808;9.476;2023-12-14T02:59:51;16.90;;;15.70;;
20044;SDS011;10183;47.808;9.476;2023-12-14T03:02:37;17.63;;;16.33;;
20044;SDS011;10183;47.808;9.476;2023-12-14T03:05:23;19.73;;;17.83;;
20044;SDS011;10183;47.808;9.476;2023-12-14T03:08:09;17.27;;;16.07;;
20044;SDS011;10183;47.808;9.476;2023-12-14T03:10:55;18.33;;;17.03;;
20044;SDS011;10183;47.808;9.476;2023-12-14T03:13:41;17.07;;;15.87;;
20044;SDS011;10183;47.808;9.476;2023-12-14T03:16:26;18.33;;;16.93;;
20044;SDS011;10183;47.808;9.476;2023-12-14T03:19:12;17.37;;;16.17;;
20044;SDS011;10183;47.808;9.476;2023-12-14T03:21:58;18.70;;;17.20;;
20044;SDS011;10183;47.808;9.476;2023-12-14T03:24:44;16.30;;;15.10;;
20044;SDS011;10183;47.808;9.476;2023-12-14T03:27:30;18.67;;;17.23;;
20044;SDS011;10183;47.808;9.476;2023-12-14T03:30:16;16.07;;;15.07;;
20044;SDS011;10183;47.808;9.476;2023-12-14T03:33:02;15.50;;;14.50;;
20044;SDS011;10183;47.808;9.476;2023-12-14T03:35:50;15.90;;;14.90;;
20044;SDS011;10183;47.808;9.476;2023-12-14T03:38:36;16.30;;;15.30;;
20044;SDS011;10183;47.808;9.476;2023-12-14T03:41:22;16.23;;;15.13;;
20044;SDS011;10183;47.808;9.476;2023-12-14T03:44:08;18.13;;;16.93;;
20044;SDS011;10183;47.808;9.476;2023-12-14T03:46:54;17.03;;;15.93;;
20044;SDS011;10183;47.808;9.476;2023-12-14T03:49:41;16.10;;;15.00;;
20044;SDS011;10183;47.808;9.476;2023-12-14T03:52:27;20.43;;;18.47;;
20044;SDS011;10183;47.808;9.476;2023-12-14T03:55:16;20.43;;;18.73;;
20044;SDS011;10183;47.808;9.476;2023-12-14T03:58:02;17.57;;;16.37;;
20044;SDS011;10183;47.808;9.476;2023-12-14T04:00:48;19.00;;;17.37;;
20044;SDS011;10183;47.808;9.476;2023-12-14T04:03:35;19.80;;;18.20;;
20044;SDS011;10183;47.808;9.476;2023-12-14T04:06:21;21.43;;;19.53;;
20044;SDS011;10183;47.808;9.476;2023-12-14T04:09:07;23.03;;;20.93;;
20044;SDS011;10183;47.808;9.476;2023-12-14T04:11:53;22.40;;;20.17;;
20044;SDS011;10183;47.808;9.476;2023-12-14T04:14:39;20.83;;;19.33;;
20044;SDS011;10183;47.808;9.476;2023-12-14T04:17:24;19.67;;;18.37;;
20044;SDS011;10183;47.808;9.476;2023-12-14T04:20:10;17.87;;;16.67;;
20044;SDS011;10183;47.808;9.476;2023-12-14T04:22:59;17.70;;;16.60;;
20044;SDS011;10183;47.808;9.476;2023-12-14T04:25:45;18.73;;;17.53;;
20044;SDS011;10183;47.808;9.476;2023-12-14T04:28:31;18.27;;;17.17;;
20044;SDS011;10183;47.808;9.476;2023-12-14T04:31:17;18.27;;;17.07;;
20044;SDS011;10183;47.808;9.476;2023-12-14T04:34:03;19.77;;;18.47;;
20044;SDS011;10183;47.808;9.476;2023-12-14T04:36:49;16.43;;;15.43;;
20044;SDS011;10183;47.808;9.476;2023-12-14T04:39:35;17.00;;;15.90;;
20044;SDS011;10183;47.808;9.476;2023-12-14T04:42:21;19.07;;;17.57;;
20044;SDS011;10183;47.808;9.476;2023-12-14T04:45:07;16.57;;;15.57;;
20044;SDS011;10183;47.808;9.476;2023-12-14T04:47:56;15.67;;;14.67;;
20044;SDS011;10183;47.808;9.476;2023-12-14T04:50:42;18.50;;;17.30;;
20044;SDS011;10183;47.808;9.476;2023-12-14T04:53:27;16.80;;;15.73;;
20044;SDS011;10183;47.808;9.476;2023-12-14T04:56:13;18.10;;;16.97;;
20044;SDS011;10183;47.808;9.476;2023-12-14T04:58:59;19.27;;;17.97;;
20044;SDS011;10183;47.808;9.476;2023-12-14T05:01:45;18.53;;;17.33;;
20044;SDS011;10183;47.808;9.476;2023-12-14T05:04:31;18.70;;;17.40;;
20044;SDS011;10183;47.808;9.476;2023-12-14T05:07:17;18.30;;;17.00;;
20044;SDS011;10183;47.808;9.476;2023-12-14T05:10:03;18.00;;;16.70;;
20044;SDS011;10183;47.808;9.476;2023-12-14T05:12:50;18.73;;;17.43;;
20044;SDS011;10183;47.808;9.476;2023-12-14T05:15:36;18.13;;;16.87;;
20044;SDS011;10183;47.808;9.476;2023-12-14T05:18:22;19.00;;;17.30;;
20044;SDS011;10183;47.808;9.476;2023-12-14T05:21:08;17.43;;;16.23;;
20044;SDS011;10183;47.808;9.476;2023-12-14T05:23:54;19.43;;;17.93;;
20044;SDS011;10183;47.808;9.476;2023-12-14T05:26:40;17.70;;;16.50;;
20044;SDS011;10183;47.808;9.476;2023-12-14T05:29:26;18.53;;;17.07;;
20044;SDS011;10183;47.808;9.476;2023-12-14T05:32:12;16.23;;;15.13;;
20044;SDS011;10183;47.808;9.476;2023-12-14T05:34:58;16.23;;;15.23;;
20044;SDS011;10183;47.808;9.476;2023-12-14T05:37:45;20.20;;;18.37;;
20044;SDS011;10183;47.808;9.476;2023-12-14T05:40:31;15.70;;;14.70;;
20044;SDS011;10183;47.808;9.476;2023-12-14T05:43:17;16.27;;;15.27;;
20044;SDS011;10183;47.808;9.476;2023-12-14T05:46:03;15.93;;;14.93;;
20044;SDS011;10183;47.808;9.476;2023-12-14T05:48:49;17.30;;;16.07;;
20044;SDS011;10183;47.808;9.476;2023-12-14T05:51:36;17.47;;;16.23;;
20044;SDS011;10183;47.808;9.476;2023-12-14T05:54:23;18.70;;;16.77;;
20044;SDS011;10183;47.808;9.476;2023-12-14T05:57:09;18.10;;;16.60;;
20044;SDS011;10183;47.808;9.476;2023-12-14T05:59:58;16.13;;;15.03;;
20044;SDS011;10183;47.808;9.476;2023-12-14T06:02:44;17.83;;;16.50;;
20044;SDS011;10183;47.808;9.476;2023-12-14T06:05:30;15.80;;;14.70;;
20044;SDS011;10183;47.808;9.476;2023-12-14T06:08:16;18.07;;;16.67;;
20044;SDS011;10183;47.808;9.476;2023-12-14T06:11:02;15.73;;;14.63;;
20044;SDS011;10183;47.808;9.476;2023-12-14T06:13:48;22.17;;;20.17;;
20044;SDS011;10183;47.808;9.476;2023-12-14T06:16:34;19.37;;;17.43;;
20044;SDS011;10183;47.808;9.476;2023-12-14T06:19:20;17.87;;;16.57;;
20044;SDS011;10183;47.808;9.476;2023-12-14T06:22:06;23.63;;;21.20;;
20044;SDS011;10183;47.808;9.476;2023-12-14T06:24:52;22.57;;;20.77;;
20044;SDS011;10183;47.808;9.476;2023-12-14T06:27:38;24.37;;;22.07;;
20044;SDS011;10183;47.808;9.476;2023-12-14T06:30:24;19.57;;;18.27;;
20044;SDS011;10183;47.808;9.476;2023-12-14T06:33:10;20.30;;;18.90;;
20044;SDS011;10183;47.808;9.476;2023-12-14T06:35:56;26.70;;;23.37;;
20044;SDS011;10183;47.808;9.476;2023-12-14T06:38:42;20.33;;;18.57;;
20044;SDS011;10183;47.808;9.476;2023-12-14T06:41:28;17.20;;;16.10;;
20044;SDS011;10183;47.808;9.476;2023-12-14T06:44:14;17.23;;;16.13;;
20044;SDS011;10183;47.808;9.476;2023-12-14T06:47:02;16.50;;;15.50;;
20044;SDS011;10183;47.808;9.476;2023-12-14T06:49:48;16.10;;;15.10;;
20044;SDS011;10183;47.808;9.476;2023-12-14T06:52:35;15.60;;;14.70;;
20044;SDS011;10183;47.808;9.476;2023-12-14T06:55:21;14.40;;;13.60;;
20044;SDS011;10183;47.808;9.476;2023-12-14T06:58:07;14.20;;;13.40;;
20044;SDS011;10183;47.808;9.476;2023-12-14T07:00:56;14.27;;;13.37;;
20044;SDS011;10183;47.808;9.476;2023-12-14T07:03:43;14.67;;;13.83;;
20044;SDS011;10183;47.808;9.476;2023-12-14T07:06:29;13.80;;;13.00;;
20044;SDS011;10183;47.808;9.476;2023-12-14T07:09:15;13.40;;;12.60;;
20044;SDS011;10183;47.808;9.476;2023-12-14T07:12:01;15.87;;;14.67;;
20044;SDS011;10183;47.808;9.476;2023-12-14T07:14:48;22.27;;;20.43;;
20044;SDS011;10183;47.808;9.476;2023-12-14T07:17:34;23.20;;;21.00;;
20044;SDS011;10183;47.808;9.476;2023-12-14T07:20:20;25.57;;;22.37;;
20044;SDS011;10183;47.808;9.476;2023-12-14T07:23:06;19.50;;;17.80;;
20044;SDS011;10183;47.808;9.476;2023-12-14T07:25:52;18.90;;;17.20;;
20044;SDS011;10183;47.808;9.476;2023-12-14T07:28:38;23.90;;;22.10;;
20044;SDS011;10183;47.808;9.476;2023-12-14T07:31:24;25.27;;;20.33;;
20044;SDS011;10183;47.808;9.476;2023-12-14T07:34:10;18.93;;;17.53;;
20044;SDS011;10183;47.808;9.476;2023-12-14T07:36:56;22.70;;;20.90;;
20044;SDS011;10183;47.808;9.476;2023-12-14T07:39:42;17.77;;;16.37;;
20044;SDS011;10183;47.808;9.476;2023-12-14T07:42:28;17.47;;;16.17;;
20044;SDS011;10183;47.808;9.476;2023-12-14T07:45:14;22.40;;;20.37;;
20044;SDS011;10183;47.808;9.476;2023-12-14T07:48:00;18.47;;;17.07;;
20044;SDS011;10183;47.808;9.476;2023-12-14T07:50:46;18.77;;;17.33;;
20044;SDS011;10183;47.808;9.476;2023-12-14T07:53:33;21.23;;;19.47;;
20044;SDS011;10183;47.808;9.476;2023-12-14T07:56:19;19.00;;;17.53;;
20044;SDS011;10183;47.808;9.476;2023-12-14T07:59:10;17.57;;;16.30;;
20044;SDS011;10183;47.808;9.476;2023-12-14T08:01:56;18.60;;;16.80;;
20044;SDS011;10183;47.808;9.476;2023-12-14T08:04:42;18.57;;;17.00;;
20044;SDS011;10183;47.808;9.476;2023-12-14T08:07:28;18.70;;;17.30;;
20044;SDS011;10183;47.808;9.476;2023-12-14T08:10:14;20.80;;;18.80;;
20044;SDS011;10183;47.808;9.476;2023-12-14T08:13:00;19.97;;;18.37;;
20044;SDS011;10183;47.808;9.476;2023-12-14T08:15:46;19.77;;;18.27;;
20044;SDS011;10183;47.808;9.476;2023-12-14T08:18:32;24.07;;;22.17;;
20044;SDS011;10183;47.808;9.476;2023-12-14T08:21:18;28.13;;;25.37;;
20044;SDS011;10183;47.808;9.476;2023-12-14T08:24:04;18.93;;;17.63;;
20044;SDS011;10183;47.808;9.476;2023-12-14T08:26:50;17.90;;;16.70;;
20044;SDS011;10183;47.808;9.476;2023-12-14T08:29:36;24.83;;;22.10;;
20044;SDS011;10183;47.808;9.476;2023-12-14T08:32:22;18.00;;;16.40;;
20044;SDS011;10183;47.808;9.476;2023-12-14T08:35:08;16.13;;;14.93;;
20044;SDS011;10183;47.808;9.476;2023-12-14T08:37:54;18.97;;;17.37;;
20044;SDS011;10183;47.808;9.476;2023-12-14T08:40:40;21.90;;;19.80;;
20044;SDS011;10183;47.808;9.476;2023-12-14T08:43:26;17.50;;;16.13;;
20044;SDS011;10183;47.808;9.476;2023-12-14T08:46:12;19.17;;;17.20;;
20044;SDS011;10183;47.808;9.476;2023-12-14T08:48:58;19.33;;;17.53;;
20044;SDS011;10183;47.808;9.476;2023-12-14T08:51:44;20.97;;;18.97;;
20044;SDS011;10183;47.808;9.476;2023-12-14T08:54:31;23.20;;;20.73;;
20044;SDS011;10183;47.808;9.476;2023-12-14T08:57:17;18.00;;;16.30;;
20044;SDS011;10183;47.808;9.476;2023-12-14T09:00:03;19.10;;;17.20;;
20044;SDS011;10183;47.808;9.476;2023-12-14T09:02:52;19.47;;;17.77;;
20044;SDS011;10183;47.808;9.476;2023-12-14T09:05:38;20.07;;;18.20;;
20044;SDS011;10183;47.808;9.476;2023-12-14T09:08:27;16.47;;;15.17;;
20044;SDS011;10183;47.808;9.476;2023-12-14T09:11:13;17.83;;;16.30;;
20044;SDS011;10183;47.808;9.476;2023-12-14T09:14:00;18.33;;;16.60;;
20044;SDS011;10183;47.808;9.476;2023-12-14T09:16:46;18.20;;;16.60;;
20044;SDS011;10183;47.808;9.476;2023-12-14T09:19:32;16.27;;;15.07;;
20044;SDS011;10183;47.808;9.476;2023-12-14T09:22:18;16.93;;;15.53;;
20044;SDS011;10183;47.808;9.476;2023-12-14T09:25:04;16.03;;;14.83;;
20044;SDS011;10183;47.808;9.476;2023-12-14T09:27:51;14.67;;;13.67;;
20044;SDS011;10183;47.808;9.476;2023-12-14T09:30:37;15.27;;;14.17;;
20044;SDS011;10183;47.808;9.476;2023-12-14T09:33:22;19.27;;;17.43;;
20044;SDS011;10183;47.808;9.476;2023-12-14T09:36:08;17.57;;;16.13;;
20044;SDS011;10183;47.808;9.476;2023-12-14T09:38:54;18.23;;;16.63;;
20044;SDS011;10183;47.808;9.476;2023-12-14T09:41:40;17.80;;;16.43;;
20044;SDS011;10183;47.808;9.476;2023-12-14T09:44:26;16.90;;;15.40;;
20044;SDS011;10183;47.808;9.476;2023-12-14T09:47:13;19.57;;;17.63;;
20044;SDS011;10183;47.808;9.476;2023-12-14T09:49:59;20.37;;;18.47;;
20044;SDS011;10183;47.808;9.476;2023-12-14T09:52:46;19.17;;;17.37;;
20044;SDS011;10183;47.808;9.476;2023-12-14T09:55:34;19.33;;;17.43;;
20044;SDS011;10183;47.808;9.476;2023-12-14T09:58:20;22.80;;;20.33;;
20044;SDS011;10183;47.808;9.476;2023-12-14T10:01:25;20.63;;;18.73;;
20044;SDS011;10183;47.808;9.476;2023-12-14T10:04:16;22.40;;;20.10;;
20044;SDS011;10183;47.808;9.476;2023-12-14T10:07:03;17.53;;;16.23;;
20044;SDS011;10183;47.808;9.476;2023-12-14T10:09:52;21.20;;;19.20;;
20044;SDS011;10183;47.808;9.476;2023-12-14T10:12:51;18.43;;;16.93;;
20044;SDS011;10183;47.808;9.476;2023-12-14T10:15:45;17.20;;;15.83;;
20044;SDS011;10183;47.808;9.476;2023-12-14T10:18:33;17.50;;;16.10;;
20044;SDS011;10183;47.808;9.476;2023-12-14T10:21:20;17.90;;;16.20;;
20044;SDS011;10183;47.808;9.476;2023-12-14T10:24:06;19.63;;;17.93;;
20044;SDS011;10183;47.808;9.476;2023-12-14T10:26:52;18.37;;;16.67;;
20044;SDS011;10183;47.808;9.476;2023-12-14T10:29:38;19.10;;;17.17;;
20044;SDS011;10183;47.808;9.476;2023-12-14T10:32:24;18.93;;;17.30;;
20044;SDS011;10183;47.808;9.476;2023-12-14T10:35:10;19.23;;;17.63;;
20044;SDS011;10183;47.808;9.476;2023-12-14T10:37:58;19.30;;;17.70;;
20044;SDS011;10183;47.808;9.476;2023-12-14T10:40:48;19.43;;;17.83;;
20044;SDS011;10183;47.808;9.476;2023-12-14T10:43:36;19.47;;;17.47;;
20044;SDS011;10183;47.808;9.476;2023-12-14T10:46:25;18.80;;;17.20;;
20044;SDS011;10183;47.808;9.476;2023-12-14T10:49:12;17.67;;;16.27;;
20044;SDS011;10183;47.808;9.476;2023-12-14T10:51:58;19.10;;;17.60;;
20044;SDS011;10183;47.808;9.476;2023-12-14T10:54:45;18.30;;;16.90;;
20044;SDS011;10183;47.808;9.476;2023-12-14T10:57:34;17.40;;;16.00;;
20044;SDS011;10183;47.808;9.476;2023-12-14T11:00:20;19.03;;;17.63;;
20044;SDS011;10183;47.808;9.476;2023-12-14T11:03:06;20.60;;;19.03;;
20044;SDS011;10183;47.808;9.476;2023-12-14T11:05:52;22.67;;;20.97;;
20044;SDS011;10183;47.808;9.476;2023-12-14T11:08:38;21.70;;;20.03;;
20044;SDS011;10183;47.808;9.476;2023-12-14T11:11:27;23.93;;;21.73;;
20044;SDS011;10183;47.808;9.476;2023-12-14T11:14:14;22.90;;;20.90;;
20044;SDS011;10183;47.808;9.476;2023-12-14T11:17:06;21.47;;;19.77;;
20044;SDS011;10183;47.808;9.476;2023-12-14T11:19:54;18.60;;;17.20;;
20044;SDS011;10183;47.808;9.476;2023-12-14T11:22:41;20.90;;;19.40;;
20044;SDS011;10183;47.808;9.476;2023-12-14T11:25:30;20.70;;;19.10;;
20044;SDS011;10183;47.808;9.476;2023-12-14T11:28:16;22.57;;;20.70;;
20044;SDS011;10183;47.808;9.476;2023-12-14T11:31:02;21.70;;;20.10;;
20044;SDS011;10183;47.808;9.476;2023-12-14T11:33:51;19.37;;;17.97;;
20044;SDS011;10183;47.808;9.476;2023-12-14T11:36:38;21.37;;;19.77;;
20044;SDS011;10183;47.808;9.476;2023-12-14T11:39:29;25.43;;;23.43;;
20044;SDS011;10183;47.808;9.476;2023-12-14T11:42:17;22.90;;;21.10;;
20044;SDS011;10183;47.808;9.476;2023-12-14T11:45:04;25.47;;;23.17;;
20044;SDS011;10183;47.808;9.476;2023-12-14T11:47:50;23.67;;;21.43;;
20044;SDS011;10183;47.808;9.476;2023-12-14T11:50:37;28.10;;;25.40;;
20044;SDS011;10183;47.808;9.476;2023-12-14T11:53:24;22.87;;;21.00;;
20044;SDS011;10183;47.808;9.476;2023-12-14T11:56:09;23.67;;;21.77;;
20044;SDS011;10183;47.808;9.476;2023-12-14T11:58:55;23.77;;;21.67;;
20044;SDS011;10183;47.808;9.476;2023-12-14T12:01:53;21.07;;;19.47;;
20044;SDS011;10183;47.808;9.476;2023-12-14T12:04:52;27.47;;;25.17;;
20044;SDS011;10183;47.808;9.476;2023-12-14T12:07:39;25.67;;;23.67;;
20044;SDS011;10183;47.808;9.476;2023-12-14T12:10:29;21.10;;;19.30;;
20044;SDS011;10183;47.808;9.476;2023-12-14T12:13:19;17.27;;;15.93;;
20044;SDS011;10183;47.808;9.476;2023-12-14T12:16:05;18.37;;;16.77;;
20044;SDS011;10183;47.808;9.476;2023-12-14T12:18:51;21.50;;;19.30;;
20044;SDS011;10183;47.808;9.476;2023-12-14T12:21:37;20.50;;;18.73;;
20044;SDS011;10183;47.808;9.476;2023-12-14T12:24:23;18.93;;;17.23;;
20044;SDS011;10183;47.808;9.476;2023-12-14T12:27:09;19.07;;;17.47;;
20044;SDS011;10183;47.808;9.476;2023-12-14T12:29:55;19.77;;;17.93;;
20044;SDS011;10183;47.808;9.476;2023-12-14T12:32:41;20.00;;;17.97;;
20044;SDS011;10183;47.808;9.476;2023-12-14T12:35:27;21.80;;;19.83;;
20044;SDS011;10183;47.808;9.476;2023-12-14T12:38:15;23.23;;;21.03;;
20044;SDS011;10183;47.808;9.476;2023-12-14T12:41:01;22.17;;;20.27;;
20044;SDS011;10183;47.808;9.476;2023-12-14T12:43:47;21.43;;;19.43;;
20044;SDS011;10183;47.808;9.476;2023-12-14T12:46:34;22.60;;;20.53;;
20044;SDS011;10183;47.808;9.476;2023-12-14T12:49:20;21.60;;;19.40;;
20044;SDS011;10183;47.808;9.476;2023-12-14T12:52:06;23.70;;;21.50;;
20044;SDS011;10183;47.808;9.476;2023-12-14T12:54:52;20.23;;;18.53;;
20044;SDS011;10183;47.808;9.476;2023-12-14T12:57:38;25.90;;;23.17;;
20044;SDS011;10183;47.808;9.476;2023-12-14T13:00:25;24.50;;;22.17;;
20044;SDS011;10183;47.808;9.476;2023-12-14T13:03:11;21.80;;;19.80;;
20044;SDS011;10183;47.808;9.476;2023-12-14T13:05:58;22.17;;;19.97;;
20044;SDS011;10183;47.808;9.476;2023-12-14T13:08:44;19.93;;;18.10;;
20044;SDS011;10183;47.808;9.476;2023-12-14T13:11:30;19.03;;;17.37;;
20044;SDS011;10183;47.808;9.476;2023-12-14T13:14:15;19.30;;;17.70;;
20044;SDS011;10183;47.808;9.476;2023-12-14T13:17:01;22.03;;;17.77;;
20044;SDS011;10183;47.808;9.476;2023-12-14T13:19:47;20.03;;;18.23;;
20044;SDS011;10183;47.808;9.476;2023-12-14T13:22:33;19.90;;;17.77;;
20044;SDS011;10183;47.808;9.476;2023-12-14T13:25:19;18.37;;;16.87;;
20044;SDS011;10183;47.808;9.476;2023-12-14T13:28:07;19.33;;;17.57;;
20044;SDS011;10183;47.808;9.476;2023-12-14T13:30:54;17.63;;;16.23;;
20044;SDS011;10183;47.808;9.476;2023-12-14T13:33:40;18.23;;;16.53;;
20044;SDS011;10183;47.808;9.476;2023-12-14T13:36:26;18.20;;;16.47;;
20044;SDS011;10183;47.808;9.476;2023-12-14T13:39:12;18.23;;;16.73;;
20044;SDS011;10183;47.808;9.476;2023-12-14T13:41:59;18.80;;;17.20;;
20044;SDS011;10183;47.808;9.476;2023-12-14T13:44:45;19.40;;;17.60;;
20044;SDS011;10183;47.808;9.476;2023-12-14T13:47:31;19.87;;;18.07;;
20044;SDS011;10183;47.808;9.476;2023-12-14T13:50:17;18.10;;;16.60;;
20044;SDS011;10183;47.808;9.476;2023-12-14T13:53:03;24.30;;;21.80;;
20044;SDS011;10183;47.808;9.476;2023-12-14T13:55:50;21.07;;;19.07;;
20044;SDS011;10183;47.808;9.476;2023-12-14T13:58:36;22.10;;;20.20;;
20044;SDS011;10183;47.808;9.476;2023-12-14T14:01:23;21.53;;;19.63;;
20044;SDS011;10183;47.808;9.476;2023-12-14T14:04:10;22.83;;;20.63;;
20044;SDS011;10183;47.808;9.476;2023-12-14T14:06:56;21.10;;;19.10;;
20044;SDS011;10183;47.808;9.476;2023-12-14T14:09:42;22.00;;;20.00;;
20044;SDS011;10183;47.808;9.476;2023-12-14T14:12:28;21.13;;;19.23;;
20044;SDS011;10183;47.808;9.476;2023-12-14T14:15:14;21.57;;;19.57;;
20044;SDS011;10183;47.808;9.476;2023-12-14T14:18:00;19.90;;;17.90;;
20044;SDS011;10183;47.808;9.476;2023-12-14T14:20:46;20.40;;;18.60;;
20044;SDS011;10183;47.808;9.476;2023-12-14T14:23:32;20.90;;;19.10;;
20044;SDS011;10183;47.808;9.476;2023-12-14T14:26:18;19.83;;;18.03;;
20044;SDS011;10183;47.808;9.476;2023-12-14T14:29:03;19.83;;;18.03;;
20044;SDS011;10183;47.808;9.476;2023-12-14T14:31:49;20.97;;;18.87;;
20044;SDS011;10183;47.808;9.476;2023-12-14T14:34:35;75.40;;;44.90;;
20044;SDS011;10183;47.808;9.476;2023-12-14T14:37:21;74.57;;;45.40;;
20044;SDS011;10183;47.808;9.476;2023-12-14T14:40:07;95.60;;;53.00;;
20044;SDS011;10183;47.808;9.476;2023-12-14T14:42:54;47.57;;;33.80;;
20044;SDS011;10183;47.808;9.476;2023-12-14T14:45:39;20.03;;;18.23;;
20044;SDS011;10183;47.808;9.476;2023-12-14T14:48:26;19.70;;;17.80;;
20044;SDS011;10183;47.808;9.476;2023-12-14T14:51:12;19.23;;;17.63;;
20044;SDS011;10183;47.808;9.476;2023-12-14T14:53:58;22.77;;;20.87;;
20044;SDS011;10183;47.808;9.476;2023-12-14T14:56:44;18.97;;;17.37;;
20044;SDS011;10183;47.808;9.476;2023-12-14T14:59:29;18.67;;;17.07;;
20044;SDS011;10183;47.808;9.476;2023-12-14T15:02:16;17.20;;;15.80;;
20044;SDS011;10183;47.808;9.476;2023-12-14T15:05:02;18.60;;;17.10;;
20044;SDS011;10183;47.808;9.476;2023-12-14T15:07:48;21.33;;;19.83;;
20044;SDS011;10183;47.808;9.476;2023-12-14T15:10:34;21.17;;;19.67;;
20044;SDS011;10183;47.808;9.476;2023-12-14T15:13:20;20.17;;;18.67;;
20044;SDS011;10183;47.808;9.476;2023-12-14T15:16:06;19.73;;;18.33;;
20044;SDS011;10183;47.808;9.476;2023-12-14T15:18:52;20.80;;;19.30;;
20044;SDS011;10183;47.808;9.476;2023-12-14T15:21:38;22.03;;;20.50;;
20044;SDS011;10183;47.808;9.476;2023-12-14T15:24:24;23.10;;;21.40;;
20044;SDS011;10183;47.808;9.476;2023-12-14T15:27:10;25.60;;;23.90;;
20044;SDS011;10183;47.808;9.476;2023-12-14T15:29:56;22.17;;;20.97;;
20044;SDS011;10183;47.808;9.476;2023-12-14T15:32:42;23.33;;;21.43;;
20044;SDS011;10183;47.808;9.476;2023-12-14T15:35:28;23.33;;;21.43;;
20044;SDS011;10183;47.808;9.476;2023-12-14T15:38:14;24.67;;;22.77;;
20044;SDS011;10183;47.808;9.476;2023-12-14T15:41:00;23.80;;;22.40;;
20044;SDS011;10183;47.808;9.476;2023-12-14T15:43:47;14.83;;;13.87;;
20044;SDS011;10183;47.808;9.476;2023-12-14T15:46:32;15.80;;;14.80;;
20044;SDS011;10183;47.808;9.476;2023-12-14T15:49:18;15.13;;;14.23;;
20044;SDS011;10183;47.808;9.476;2023-12-14T15:52:04;16.00;;;15.00;;
20044;SDS011;10183;47.808;9.476;2023-12-14T15:54:50;16.17;;;15.17;;
20044;SDS011;10183;47.808;9.476;2023-12-14T15:57:36;14.90;;;14.00;;
20044;SDS011;10183;47.808;9.476;2023-12-14T16:00:22;16.80;;;15.70;;
20044;SDS011;10183;47.808;9.476;2023-12-14T16:03:08;17.77;;;16.57;;
20044;SDS011;10183;47.808;9.476;2023-12-14T16:05:55;19.30;;;17.80;;
20044;SDS011;10183;47.808;9.476;2023-12-14T16:08:40;17.27;;;15.97;;
20044;SDS011;10183;47.808;9.476;2023-12-14T16:11:26;18.60;;;17.20;;
20044;SDS011;10183;47.808;9.476;2023-12-14T16:14:12;19.70;;;18.20;;